This is the latest recevied weather packets stored in our database for station/object EA3HRE-13. If no packets are shown the sender has not sent any weather packets the latest 10 day(s).
| Time | Temp. | Humidity | Pressure | Rain* | Wind** | Luminosity | Snow |
|---|---|---|---|---|---|---|---|
| 1787832625 | 30.56° C | 100% | 1009.6 hPa | 0 mm | - | - | - |
| 1787831995 | 30.56° C | 100% | 1009.5 hPa | 0 mm | - | - | - |
| 1787831395 | 30.56° C | 100% | 1009.6 hPa | 0 mm | - | - | - |
| 1787830795 | 30.56° C | 100% | 1009.6 hPa | 0 mm | - | - | - |
| 1787830194 | 30.56° C | 100% | 1009.5 hPa | 0 mm | - | - | - |
| 1787829564 | 30.56° C | 100% | 1009.5 hPa | 0 mm | - | - | - |
| 1787828964 | 30.56° C | 100% | 1009.5 hPa | 0 mm | - | - | - |
| 1787828364 | 30° C | 100% | 1009.4 hPa | 0 mm | - | - | - |
| 1787827764 | 30° C | 100% | 1009.6 hPa | 0 mm | - | - | - |
| 1787827164 | 29.44° C | 100% | 1009.6 hPa | 0 mm | - | - | - |
| 1787826564 | 29.44° C | 100% | 1009.7 hPa | 0 mm | - | - | - |
| 1787825964 | 29.44° C | 100% | 1009.9 hPa | 0 mm | - | - | - |
| 1787825364 | 29.44° C | 100% | 1010 hPa | 0 mm | - | - | - |
| 1787824733 | 29.44° C | 100% | 1010.1 hPa | 0 mm | - | - | - |
| 1787824133 | 30.56° C | 100% | 1015 hPa | 0 mm | - | - | - |
| 1787823533 | 28.89° C | 100% | 1010 hPa | 0 mm | - | - | - |
| 1787822933 | 28.89° C | 100% | 1010.1 hPa | 0 mm | - | - | - |
| 1787822333 | 28.33° C | 100% | 1010.1 hPa | 0 mm | - | - | - |
| 1787821733 | 28.33° C | 100% | 1010.2 hPa | 0 mm | - | - | - |
| 1787821133 | 28.33° C | 100% | 1010.2 hPa | 0 mm | - | - | - |
| 1787820503 | 28.33° C | 100% | 1010.4 hPa | 0 mm | - | - | - |
| 1787819903 | 28.33° C | 100% | 1010.3 hPa | 0 mm | - | - | - |
| 1787819273 | 28.33° C | 100% | 1010.3 hPa | 0 mm | - | - | - |
| 1787818673 | 28.33° C | 100% | 1010.2 hPa | 0 mm | - | - | - |
| 1787818073 | 27.78° C | 100% | 1009.8 hPa | 0 mm | - | - | - |
* Rain latest hour (hover to see other rain measurements)
** Current wind speed in m/s (hover to see current wind gust speed)